sensor_id;sensor_type;location;lat;lon;timestamp;pressure;altitude;pressure_sealevel;temperature;humidity
23996;BME280;12207;50.076;8.848;2024-02-23T00:02:05;97648.03;;;9.08;81.55
23996;BME280;12207;50.076;8.848;2024-02-23T00:04:31;97654.16;;;9.03;80.81
23996;BME280;12207;50.076;8.848;2024-02-23T00:06:57;97658.97;;;9.01;80.93
23996;BME280;12207;50.076;8.848;2024-02-23T00:09:23;97655.25;;;8.97;80.87
23996;BME280;12207;50.076;8.848;2024-02-23T00:11:51;97660.59;;;8.97;81.14
23996;BME280;12207;50.076;8.848;2024-02-23T00:14:17;97666.97;;;8.91;81.10
23996;BME280;12207;50.076;8.848;2024-02-23T00:16:44;97677.63;;;8.86;81.96
23996;BME280;12207;50.076;8.848;2024-02-23T00:19:10;97685.38;;;8.87;82.23
23996;BME280;12207;50.076;8.848;2024-02-23T00:21:37;97693.38;;;8.82;81.89
23996;BME280;12207;50.076;8.848;2024-02-23T00:24:04;97698.69;;;8.82;80.59
23996;BME280;12207;50.076;8.848;2024-02-23T00:26:31;97705.88;;;8.77;80.38
23996;BME280;12207;50.076;8.848;2024-02-23T00:28:57;97715.75;;;8.76;81.00
23996;BME280;12207;50.076;8.848;2024-02-23T00:31:23;97716.56;;;8.72;79.16
23996;BME280;12207;50.076;8.848;2024-02-23T00:33:49;97724.53;;;8.67;78.48
23996;BME280;12207;50.076;8.848;2024-02-23T00:36:15;97734.69;;;8.70;77.12
23996;BME280;12207;50.076;8.848;2024-02-23T00:38:42;97732.28;;;8.68;77.32
23996;BME280;12207;50.076;8.848;2024-02-23T00:41:09;97725.84;;;8.64;78.30
23996;BME280;12207;50.076;8.848;2024-02-23T00:43:38;97747.72;;;8.61;76.21
23996;BME280;12207;50.076;8.848;2024-02-23T00:46:05;97745.81;;;8.57;76.98
23996;BME280;12207;50.076;8.848;2024-02-23T00:48:32;97752.53;;;8.59;76.54
23996;BME280;12207;50.076;8.848;2024-02-23T00:50:58;97743.13;;;8.51;77.26
23996;BME280;12207;50.076;8.848;2024-02-23T00:53:24;97742.88;;;8.48;77.55
23996;BME280;12207;50.076;8.848;2024-02-23T00:55:50;97749.00;;;8.48;78.04
23996;BME280;12207;50.076;8.848;2024-02-23T00:58:16;97749.00;;;8.48;76.88
23996;BME280;12207;50.076;8.848;2024-02-23T01:00:43;97745.78;;;8.46;77.97
23996;BME280;12207;50.076;8.848;2024-02-23T01:03:09;97756.97;;;8.43;77.20
23996;BME280;12207;50.076;8.848;2024-02-23T01:05:38;97754.81;;;8.40;77.41
23996;BME280;12207;50.076;8.848;2024-02-23T01:08:05;97757.38;;;8.30;78.33
23996;BME280;12207;50.076;8.848;2024-02-23T01:10:32;97769.09;;;8.24;79.84
23996;BME280;12207;50.076;8.848;2024-02-23T01:12:58;97771.22;;;8.22;79.30
23996;BME280;12207;50.076;8.848;2024-02-23T01:15:24;97767.44;;;8.18;79.79
23996;BME280;12207;50.076;8.848;2024-02-23T01:17:50;97774.34;;;8.14;79.77
23996;BME280;12207;50.076;8.848;2024-02-23T01:20:16;97779.13;;;8.12;79.78
23996;BME280;12207;50.076;8.848;2024-02-23T01:22:43;97788.72;;;8.13;79.44
23996;BME280;12207;50.076;8.848;2024-02-23T01:25:09;97798.28;;;8.09;80.25
23996;BME280;12207;50.076;8.848;2024-02-23T01:27:35;97786.75;;;7.98;81.10
23996;BME280;12207;50.076;8.848;2024-02-23T01:30:01;97778.50;;;8.00;79.43
23996;BME280;12207;50.076;8.848;2024-02-23T01:32:27;97781.94;;;7.95;80.21
23996;BME280;12207;50.076;8.848;2024-02-23T01:34:54;97792.28;;;7.92;80.50
23996;BME280;12207;50.076;8.848;2024-02-23T01:37:20;97807.78;;;7.95;79.70
23996;BME280;12207;50.076;8.848;2024-02-23T01:39:46;97816.22;;;7.86;80.66
23996;BME280;12207;50.076;8.848;2024-02-23T01:42:12;97814.31;;;7.82;79.95
23996;BME280;12207;50.076;8.848;2024-02-23T01:44:47;97836.44;;;7.82;79.76
23996;BME280;12207;50.076;8.848;2024-02-23T01:47:13;97825.75;;;7.77;81.41
23996;BME280;12207;50.076;8.848;2024-02-23T01:49:41;97830.53;;;7.75;81.58
23996;BME280;12207;50.076;8.848;2024-02-23T01:52:07;97849.63;;;7.67;82.07
23996;BME280;12207;50.076;8.848;2024-02-23T01:54:34;97850.25;;;7.74;81.94
23996;BME280;12207;50.076;8.848;2024-02-23T01:57:01;97846.78;;;7.74;81.95
23996;BME280;12207;50.076;8.848;2024-02-23T01:59:27;97859.88;;;7.80;82.12
23996;BME280;12207;50.076;8.848;2024-02-23T02:01:54;97861.50;;;7.81;83.17
23996;BME280;12207;50.076;8.848;2024-02-23T02:04:20;97876.41;;;7.77;83.54
23996;BME280;12207;50.076;8.848;2024-02-23T02:06:47;97881.22;;;7.80;84.51
23996;BME280;12207;50.076;8.848;2024-02-23T02:09:13;97883.03;;;7.75;83.85
23996;BME280;12207;50.076;8.848;2024-02-23T02:11:47;97880.63;;;7.73;82.79
23996;BME280;12207;50.076;8.848;2024-02-23T02:14:14;97897.91;;;7.71;83.05
23996;BME280;12207;50.076;8.848;2024-02-23T02:16:40;97891.22;;;7.68;83.89
23996;BME280;12207;50.076;8.848;2024-02-23T02:19:06;97900.44;;;7.61;83.41
23996;BME280;12207;50.076;8.848;2024-02-23T02:21:33;97916.69;;;7.59;83.25
23996;BME280;12207;50.076;8.848;2024-02-23T02:24:00;97918.50;;;7.53;84.18
23996;BME280;12207;50.076;8.848;2024-02-23T02:26:26;97930.47;;;7.51;84.15
23996;BME280;12207;50.076;8.848;2024-02-23T02:28:55;97930.94;;;7.48;85.91
23996;BME280;12207;50.076;8.848;2024-02-23T02:31:21;97940.47;;;7.44;86.91
23996;BME280;12207;50.076;8.848;2024-02-23T02:33:47;97940.03;;;7.30;86.28
23996;BME280;12207;50.076;8.848;2024-02-23T02:36:14;97933.28;;;7.23;86.59
23996;BME280;12207;50.076;8.848;2024-02-23T02:38:40;97939.81;;;7.15;87.43
23996;BME280;12207;50.076;8.848;2024-02-23T02:41:06;97933.47;;;6.99;88.34
23996;BME280;12207;50.076;8.848;2024-02-23T02:43:32;97929.69;;;6.95;88.89
23996;BME280;12207;50.076;8.848;2024-02-23T02:45:58;97941.06;;;6.91;87.89
23996;BME280;12207;50.076;8.848;2024-02-23T02:48:28;97937.50;;;6.85;88.62
23996;BME280;12207;50.076;8.848;2024-02-23T02:50:54;97938.00;;;6.82;89.07
23996;BME280;12207;50.076;8.848;2024-02-23T02:53:20;97954.94;;;6.76;88.54
23996;BME280;12207;50.076;8.848;2024-02-23T02:55:46;97959.31;;;6.82;86.16
23996;BME280;12207;50.076;8.848;2024-02-23T02:58:13;97980.09;;;6.85;85.80
23996;BME280;12207;50.076;8.848;2024-02-23T03:00:39;97978.00;;;6.87;85.17
23996;BME280;12207;50.076;8.848;2024-02-23T03:03:05;97978.31;;;6.91;84.48
23996;BME280;12207;50.076;8.848;2024-02-23T03:05:32;97979.03;;;6.86;86.18
23996;BME280;12207;50.076;8.848;2024-02-23T03:07:58;97978.81;;;6.88;85.76
23996;BME280;12207;50.076;8.848;2024-02-23T03:10:24;97984.31;;;6.81;85.81
23996;BME280;12207;50.076;8.848;2024-02-23T03:12:50;97982.59;;;6.75;85.35
23996;BME280;12207;50.076;8.848;2024-02-23T03:15:16;97988.31;;;6.67;84.45
23996;BME280;12207;50.076;8.848;2024-02-23T03:17:42;97984.50;;;6.63;85.01
23996;BME280;12207;50.076;8.848;2024-02-23T03:20:10;97992.09;;;6.54;85.73
23996;BME280;12207;50.076;8.848;2024-02-23T03:22:37;97988.78;;;6.47;86.99
23996;BME280;12207;50.076;8.848;2024-02-23T03:25:04;97996.66;;;6.42;86.45
23996;BME280;12207;50.076;8.848;2024-02-23T03:27:35;97992.81;;;6.49;85.39
23996;BME280;12207;50.076;8.848;2024-02-23T03:30:03;98001.84;;;6.48;85.91
23996;BME280;12207;50.076;8.848;2024-02-23T03:32:33;98001.94;;;6.54;84.98
23996;BME280;12207;50.076;8.848;2024-02-23T03:35:03;98003.56;;;6.55;85.32
23996;BME280;12207;50.076;8.848;2024-02-23T03:37:30;98000.41;;;6.58;85.58
23996;BME280;12207;50.076;8.848;2024-02-23T03:39:56;97999.44;;;6.64;84.24
23996;BME280;12207;50.076;8.848;2024-02-23T03:42:22;98005.81;;;6.63;85.53
23996;BME280;12207;50.076;8.848;2024-02-23T03:44:51;98011.13;;;6.63;84.51
23996;BME280;12207;50.076;8.848;2024-02-23T03:47:17;98011.69;;;6.65;84.84
23996;BME280;12207;50.076;8.848;2024-02-23T03:49:43;98012.84;;;6.69;84.93
23996;BME280;12207;50.076;8.848;2024-02-23T03:52:12;98019.09;;;6.63;84.03
23996;BME280;12207;50.076;8.848;2024-02-23T03:54:38;98020.09;;;6.57;85.25
23996;BME280;12207;50.076;8.848;2024-02-23T03:57:04;98021.94;;;6.56;85.16
23996;BME280;12207;50.076;8.848;2024-02-23T03:59:30;98027.88;;;6.46;86.02
23996;BME280;12207;50.076;8.848;2024-02-23T04:01:57;98021.50;;;6.47;86.64
23996;BME280;12207;50.076;8.848;2024-02-23T04:04:23;98027.19;;;6.39;85.53
23996;BME280;12207;50.076;8.848;2024-02-23T04:06:49;98025.50;;;6.33;87.10
23996;BME280;12207;50.076;8.848;2024-02-23T04:09:15;98019.97;;;6.35;86.62
23996;BME280;12207;50.076;8.848;2024-02-23T04:11:41;98014.44;;;6.25;86.94
23996;BME280;12207;50.076;8.848;2024-02-23T04:14:07;98020.56;;;6.25;86.86
23996;BME280;12207;50.076;8.848;2024-02-23T04:16:34;98014.66;;;6.23;86.68
23996;BME280;12207;50.076;8.848;2024-02-23T04:19:00;98020.34;;;6.15;87.80
23996;BME280;12207;50.076;8.848;2024-02-23T04:21:26;98021.16;;;6.15;87.91
23996;BME280;12207;50.076;8.848;2024-02-23T04:23:52;98020.94;;;6.17;86.69
23996;BME280;12207;50.076;8.848;2024-02-23T04:26:18;98024.88;;;6.14;87.41
23996;BME280;12207;50.076;8.848;2024-02-23T04:28:44;98025.44;;;6.16;87.58
23996;BME280;12207;50.076;8.848;2024-02-23T04:31:14;98036.97;;;6.22;87.66
23996;BME280;12207;50.076;8.848;2024-02-23T04:33:40;98037.44;;;6.31;86.26
23996;BME280;12207;50.076;8.848;2024-02-23T04:36:07;98042.41;;;6.27;87.10
23996;BME280;12207;50.076;8.848;2024-02-23T04:38:33;98043.09;;;6.34;85.27
23996;BME280;12207;50.076;8.848;2024-02-23T04:41:03;98042.75;;;6.31;87.12
23996;BME280;12207;50.076;8.848;2024-02-23T04:43:30;98052.91;;;6.34;86.45
23996;BME280;12207;50.076;8.848;2024-02-23T04:45:56;98056.97;;;6.36;86.69
23996;BME280;12207;50.076;8.848;2024-02-23T04:48:22;98050.81;;;6.36;87.71
23996;BME280;12207;50.076;8.848;2024-02-23T04:50:48;98051.78;;;6.30;87.54
23996;BME280;12207;50.076;8.848;2024-02-23T04:53:14;98048.31;;;6.29;87.66
23996;BME280;12207;50.076;8.848;2024-02-23T04:55:40;98048.31;;;6.29;87.32
23996;BME280;12207;50.076;8.848;2024-02-23T04:58:07;98058.38;;;6.27;85.78
23996;BME280;12207;50.076;8.848;2024-02-23T05:00:33;98051.91;;;6.23;87.22
23996;BME280;12207;50.076;8.848;2024-02-23T05:03:00;98049.59;;;6.15;86.65
23996;BME280;12207;50.076;8.848;2024-02-23T05:05:29;98038.31;;;6.08;87.97
23996;BME280;12207;50.076;8.848;2024-02-23T05:07:56;98048.94;;;6.08;86.72
23996;BME280;12207;50.076;8.848;2024-02-23T05:10:22;98041.09;;;6.01;87.95
23996;BME280;12207;50.076;8.848;2024-02-23T05:12:49;98044.00;;;6.00;87.36
23996;BME280;12207;50.076;8.848;2024-02-23T05:15:15;98035.31;;;5.93;88.43
23996;BME280;12207;50.076;8.848;2024-02-23T05:17:41;98042.72;;;5.91;88.65
23996;BME280;12207;50.076;8.848;2024-02-23T05:20:08;98040.34;;;5.89;89.09
23996;BME280;12207;50.076;8.848;2024-02-23T05:22:36;98039.97;;;5.86;89.37
23996;BME280;12207;50.076;8.848;2024-02-23T05:25:03;98036.38;;;5.80;90.69
23996;BME280;12207;50.076;8.848;2024-02-23T05:27:31;98033.19;;;5.66;91.18
23996;BME280;12207;50.076;8.848;2024-02-23T05:29:57;98034.69;;;5.62;91.30
23996;BME280;12207;50.076;8.848;2024-02-23T05:32:23;98028.31;;;5.63;91.24
23996;BME280;12207;50.076;8.848;2024-02-23T05:34:49;98031.31;;;5.55;93.11
23996;BME280;12207;50.076;8.848;2024-02-23T05:37:18;98031.22;;;5.50;93.00
23996;BME280;12207;50.076;8.848;2024-02-23T05:39:45;98027.50;;;5.51;93.25
23996;BME280;12207;50.076;8.848;2024-02-23T05:42:12;98026.81;;;5.56;93.15
23996;BME280;12207;50.076;8.848;2024-02-23T05:44:43;98029.13;;;5.64;93.03
23996;BME280;12207;50.076;8.848;2024-02-23T05:47:09;98022.63;;;5.71;93.05
23996;BME280;12207;50.076;8.848;2024-02-23T05:49:36;98028.16;;;5.81;92.47
23996;BME280;12207;50.076;8.848;2024-02-23T05:52:02;98026.44;;;5.87;91.05
23996;BME280;12207;50.076;8.848;2024-02-23T05:54:28;98024.59;;;5.88;92.19
23996;BME280;12207;50.076;8.848;2024-02-23T05:56:54;98036.38;;;5.92;92.05
23996;BME280;12207;50.076;8.848;2024-02-23T05:59:20;98040.88;;;5.91;91.77
23996;BME280;12207;50.076;8.848;2024-02-23T06:01:46;98042.84;;;5.96;91.11
23996;BME280;12207;50.076;8.848;2024-02-23T06:04:12;98046.53;;;5.95;91.31
23996;BME280;12207;50.076;8.848;2024-02-23T06:06:41;98044.84;;;5.89;91.07
23996;BME280;12207;50.076;8.848;2024-02-23T06:09:09;98056.72;;;5.86;91.33
23996;BME280;12207;50.076;8.848;2024-02-23T06:11:35;98063.53;;;5.82;91.85
23996;BME280;12207;50.076;8.848;2024-02-23T06:14:01;98067.91;;;5.76;92.89
23996;BME280;12207;50.076;8.848;2024-02-23T06:16:28;98077.16;;;5.86;92.76
23996;BME280;12207;50.076;8.848;2024-02-23T06:18:54;98082.03;;;5.89;92.95
23996;BME280;12207;50.076;8.848;2024-02-23T06:21:20;98088.47;;;5.93;92.34
23996;BME280;12207;50.076;8.848;2024-02-23T06:23:46;98094.59;;;5.93;91.83
23996;BME280;12207;50.076;8.848;2024-02-23T06:26:13;98105.13;;;6.00;91.04
23996;BME280;12207;50.076;8.848;2024-02-23T06:28:39;98099.81;;;6.00;92.38
23996;BME280;12207;50.076;8.848;2024-02-23T06:31:08;98096.09;;;6.01;92.77
23996;BME280;12207;50.076;8.848;2024-02-23T06:33:34;98105.34;;;6.10;90.86
23996;BME280;12207;50.076;8.848;2024-02-23T06:36:00;98107.19;;;6.09;91.71
23996;BME280;12207;50.076;8.848;2024-02-23T06:38:27;98110.19;;;6.13;90.70
23996;BME280;12207;50.076;8.848;2024-02-23T06:40:53;98105.53;;;6.20;90.40
23996;BME280;12207;50.076;8.848;2024-02-23T06:43:21;98118.47;;;6.28;89.26
23996;BME280;12207;50.076;8.848;2024-02-23T06:45:47;98116.41;;;6.30;89.49
23996;BME280;12207;50.076;8.848;2024-02-23T06:48:13;98119.63;;;6.32;88.21
23996;BME280;12207;50.076;8.848;2024-02-23T06:50:39;98119.16;;;6.35;87.64
23996;BME280;12207;50.076;8.848;2024-02-23T06:53:05;98121.91;;;6.40;86.20
23996;BME280;12207;50.076;8.848;2024-02-23T06:55:33;98126.75;;;6.43;86.42
23996;BME280;12207;50.076;8.848;2024-02-23T06:58:03;98129.88;;;6.40;86.78
23996;BME280;12207;50.076;8.848;2024-02-23T07:00:33;98121.53;;;6.48;85.00
23996;BME280;12207;50.076;8.848;2024-02-23T07:02:59;98132.75;;;6.50;85.60
23996;BME280;12207;50.076;8.848;2024-02-23T07:05:27;98119.00;;;6.54;84.87
23996;BME280;12207;50.076;8.848;2024-02-23T07:07:56;98130.84;;;6.63;83.14
23996;BME280;12207;50.076;8.848;2024-02-23T07:10:22;98121.13;;;6.68;82.50
23996;BME280;12207;50.076;8.848;2024-02-23T07:12:48;98128.63;;;6.71;82.86
23996;BME280;12207;50.076;8.848;2024-02-23T07:15:15;98133.34;;;6.81;81.71
23996;BME280;12207;50.076;8.848;2024-02-23T07:17:41;98127.88;;;6.88;83.16
23996;BME280;12207;50.076;8.848;2024-02-23T07:20:07;98134.34;;;6.92;80.53
23996;BME280;12207;50.076;8.848;2024-02-23T07:22:33;98134.09;;;6.93;81.93
23996;BME280;12207;50.076;8.848;2024-02-23T07:25:00;98131.63;;;7.03;80.52
23996;BME280;12207;50.076;8.848;2024-02-23T07:27:29;98125.59;;;7.08;80.07
23996;BME280;12207;50.076;8.848;2024-02-23T07:29:57;98127.94;;;7.04;79.62
23996;BME280;12207;50.076;8.848;2024-02-23T07:32:23;98129.84;;;7.09;79.17
23996;BME280;12207;50.076;8.848;2024-02-23T07:34:49;98124.13;;;7.17;79.83
23996;BME280;12207;50.076;8.848;2024-02-23T07:37:15;98128.13;;;7.31;78.56
23996;BME280;12207;50.076;8.848;2024-02-23T07:39:41;98131.31;;;7.33;77.27
23996;BME280;12207;50.076;8.848;2024-02-23T07:42:08;98129.88;;;7.26;77.65
23996;BME280;12207;50.076;8.848;2024-02-23T07:44:36;98125.84;;;7.06;77.61
23996;BME280;12207;50.076;8.848;2024-02-23T07:47:03;98132.09;;;7.00;77.50
23996;BME280;12207;50.076;8.848;2024-02-23T07:49:29;98137.81;;;6.92;77.33
23996;BME280;12207;50.076;8.848;2024-02-23T07:51:56;98137.59;;;7.10;76.19
23996;BME280;12207;50.076;8.848;2024-02-23T07:54:22;98144.91;;;7.32;75.84
23996;BME280;12207;50.076;8.848;2024-02-23T07:56:48;98149.09;;;7.28;75.63
23996;BME280;12207;50.076;8.848;2024-02-23T07:59:14;98153.06;;;7.25;75.56
23996;BME280;12207;50.076;8.848;2024-02-23T08:01:43;98158.78;;;7.34;76.00
23996;BME280;12207;50.076;8.848;2024-02-23T08:04:09;98156.63;;;7.64;75.59
23996;BME280;12207;50.076;8.848;2024-02-23T08:06:35;98170.34;;;7.90;73.43
23996;BME280;12207;50.076;8.848;2024-02-23T08:09:01;98175.38;;;8.41;74.00
23996;BME280;12207;50.076;8.848;2024-02-23T08:11:28;98169.09;;;8.74;70.86
23996;BME280;12207;50.076;8.848;2024-02-23T08:13:54;98177.88;;;8.70;71.99
23996;BME280;12207;50.076;8.848;2024-02-23T08:16:20;98174.69;;;8.95;70.90
23996;BME280;12207;50.076;8.848;2024-02-23T08:18:46;98179.06;;;9.06;68.22
23996;BME280;12207;50.076;8.848;2024-02-23T08:21:13;98171.53;;;9.30;66.76
23996;BME280;12207;50.076;8.848;2024-02-23T08:23:42;98175.97;;;9.46;66.89
23996;BME280;12207;50.076;8.848;2024-02-23T08:26:08;98183.66;;;9.37;67.26
23996;BME280;12207;50.076;8.848;2024-02-23T08:28:38;98178.44;;;9.52;67.43
23996;BME280;12207;50.076;8.848;2024-02-23T08:31:04;98179.44;;;9.14;66.42
23996;BME280;12207;50.076;8.848;2024-02-23T08:33:31;98177.88;;;8.70;67.98
23996;BME280;12207;50.076;8.848;2024-02-23T08:35:57;98171.41;;;8.66;70.75
23996;BME280;12207;50.076;8.848;2024-02-23T08:38:23;98182.66;;;8.68;70.61
23996;BME280;12207;50.076;8.848;2024-02-23T08:40:49;98177.34;;;8.51;70.56
23996;BME280;12207;50.076;8.848;2024-02-23T08:43:16;98178.44;;;8.50;71.26
23996;BME280;12207;50.076;8.848;2024-02-23T08:45:42;98180.28;;;8.49;70.72
23996;BME280;12207;50.076;8.848;2024-02-23T08:48:11;98179.19;;;8.50;72.66
23996;BME280;12207;50.076;8.848;2024-02-23T08:50:41;98189.59;;;8.47;71.59
23996;BME280;12207;50.076;8.848;2024-02-23T08:53:07;98177.28;;;8.29;71.72
23996;BME280;12207;50.076;8.848;2024-02-23T08:55:33;98193.31;;;8.29;72.63
23996;BME280;12207;50.076;8.848;2024-02-23T08:57:59;98192.94;;;8.20;74.16
23996;BME280;12207;50.076;8.848;2024-02-23T09:00:25;98189.78;;;8.07;74.33
23996;BME280;12207;50.076;8.848;2024-02-23T09:02:51;98193.00;;;8.09;75.30
23996;BME280;12207;50.076;8.848;2024-02-23T09:05:17;98187.56;;;7.99;73.70
23996;BME280;12207;50.076;8.848;2024-02-23T09:07:47;98185.69;;;7.99;73.63
23996;BME280;12207;50.076;8.848;2024-02-23T09:10:13;98189.78;;;8.07;75.79
23996;BME280;12207;50.076;8.848;2024-02-23T09:12:39;98195.28;;;8.17;74.67
23996;BME280;12207;50.076;8.848;2024-02-23T09:15:06;98194.91;;;8.30;73.55
23996;BME280;12207;50.076;8.848;2024-02-23T09:17:32;98182.25;;;8.20;73.24
23996;BME280;12207;50.076;8.848;2024-02-23T09:19:58;98180.88;;;8.18;74.22
23996;BME280;12207;50.076;8.848;2024-02-23T09:22:24;98186.22;;;8.18;73.74
23996;BME280;12207;50.076;8.848;2024-02-23T09:24:53;98180.41;;;8.21;75.69
23996;BME280;12207;50.076;8.848;2024-02-23T09:27:22;98178.72;;;8.15;74.37
23996;BME280;12207;50.076;8.848;2024-02-23T09:29:48;98180.72;;;8.25;74.71
23996;BME280;12207;50.076;8.848;2024-02-23T09:32:15;98167.13;;;8.26;74.79
23996;BME280;12207;50.076;8.848;2024-02-23T09:34:41;98169.28;;;8.46;74.78
23996;BME280;12207;50.076;8.848;2024-02-23T09:37:07;98168.59;;;8.55;73.02
23996;BME280;12207;50.076;8.848;2024-02-23T09:39:33;98164.88;;;8.57;72.44
23996;BME280;12207;50.076;8.848;2024-02-23T09:41:59;98162.44;;;8.55;72.18
23996;BME280;12207;50.076;8.848;2024-02-23T09:44:32;98151.16;;;8.70;74.26
23996;BME280;12207;50.076;8.848;2024-02-23T09:47:03;98159.34;;;8.85;73.08
23996;BME280;12207;50.076;8.848;2024-02-23T09:49:41;98153.59;;;8.98;73.72
23996;BME280;12207;50.076;8.848;2024-02-23T09:52:10;98152.22;;;9.22;71.36
23996;BME280;12207;50.076;8.848;2024-02-23T09:54:37;98158.56;;;9.11;71.06
23996;BME280;12207;50.076;8.848;2024-02-23T09:57:07;98168.84;;;8.76;69.36
23996;BME280;12207;50.076;8.848;2024-02-23T09:59:38;98165.38;;;8.53;70.72
23996;BME280;12207;50.076;8.848;2024-02-23T10:02:09;98177.41;;;8.56;70.75
23996;BME280;12207;50.076;8.848;2024-02-23T10:04:36;98162.13;;;8.51;70.91
23996;BME280;12207;50.076;8.848;2024-02-23T10:07:02;98171.50;;;8.76;70.23
23996;BME280;12207;50.076;8.848;2024-02-23T10:09:30;98170.97;;;9.01;69.20
23996;BME280;12207;50.076;8.848;2024-02-23T10:11:56;98178.94;;;9.17;68.88
23996;BME280;12207;50.076;8.848;2024-02-23T10:14:23;98186.03;;;9.34;69.01
23996;BME280;12207;50.076;8.848;2024-02-23T10:16:49;98178.81;;;9.34;68.55
23996;BME280;12207;50.076;8.848;2024-02-23T10:19:23;98179.44;;;9.14;69.85
23996;BME280;12207;50.076;8.848;2024-02-23T10:21:54;98172.97;;;9.10;70.44
23996;BME280;12207;50.076;8.848;2024-02-23T10:24:26;98178.50;;;9.04;71.84
23996;BME280;12207;50.076;8.848;2024-02-23T10:26:53;98175.44;;;9.17;71.28
23996;BME280;12207;50.076;8.848;2024-02-23T10:29:19;98178.56;;;9.09;69.25
23996;BME280;12207;50.076;8.848;2024-02-23T10:31:47;98179.19;;;9.16;69.88
23996;BME280;12207;50.076;8.848;2024-02-23T10:34:17;98175.53;;;9.00;69.99
23996;BME280;12207;50.076;8.848;2024-02-23T10:36:44;98169.25;;;9.11;68.89
23996;BME280;12207;50.076;8.848;2024-02-23T10:39:16;98173.28;;;9.41;70.40
23996;BME280;12207;50.076;8.848;2024-02-23T10:41:56;98166.47;;;9.60;68.79
23996;BME280;12207;50.076;8.848;2024-02-23T10:44:24;98172.72;;;10.08;64.85
23996;BME280;12207;50.076;8.848;2024-02-23T10:46:53;98164.06;;;10.33;63.38
23996;BME280;12207;50.076;8.848;2024-02-23T10:49:23;98161.34;;;9.85;66.70
23996;BME280;12207;50.076;8.848;2024-02-23T10:51:51;98158.84;;;9.42;67.88
23996;BME280;12207;50.076;8.848;2024-02-23T10:54:20;98153.50;;;9.42;68.15
23996;BME280;12207;50.076;8.848;2024-02-23T10:56:48;98160.47;;;9.48;67.17
23996;BME280;12207;50.076;8.848;2024-02-23T10:59:15;98159.47;;;9.54;66.28
23996;BME280;12207;50.076;8.848;2024-02-23T11:01:48;98155.09;;;10.17;64.89
23996;BME280;12207;50.076;8.848;2024-02-23T11:04:19;98156.06;;;11.20;61.21
23996;BME280;12207;50.076;8.848;2024-02-23T11:06:54;98148.06;;;11.91;60.20
23996;BME280;12207;50.076;8.848;2024-02-23T11:09:26;98151.81;;;11.75;61.49
23996;BME280;12207;50.076;8.848;2024-02-23T11:11:57;98151.78;;;11.30;60.88
23996;BME280;12207;50.076;8.848;2024-02-23T11:14:37;98147.94;;;10.90;61.93
23996;BME280;12207;50.076;8.848;2024-02-23T11:17:04;98140.41;;;10.77;63.10
23996;BME280;12207;50.076;8.848;2024-02-23T11:19:34;98143.38;;;10.80;63.82
23996;BME280;12207;50.076;8.848;2024-02-23T11:22:02;98147.91;;;10.75;64.00
23996;BME280;12207;50.076;8.848;2024-02-23T11:24:32;98146.78;;;10.61;64.05
23996;BME280;12207;50.076;8.848;2024-02-23T11:27:02;98141.66;;;10.49;63.99
23996;BME280;12207;50.076;8.848;2024-02-23T11:29:35;98146.19;;;10.48;65.76
23996;BME280;12207;50.076;8.848;2024-02-23T11:32:13;98152.81;;;10.31;64.97
23996;BME280;12207;50.076;8.848;2024-02-23T11:34:55;98156.38;;;10.04;69.95
23996;BME280;12207;50.076;8.848;2024-02-23T11:37:22;98151.69;;;9.84;70.25
23996;BME280;12207;50.076;8.848;2024-02-23T11:39:48;98147.81;;;9.65;72.75
23996;BME280;12207;50.076;8.848;2024-02-23T11:42:15;98150.44;;;9.60;71.80
23996;BME280;12207;50.076;8.848;2024-02-23T11:44:41;98155.88;;;9.38;75.55
23996;BME280;12207;50.076;8.848;2024-02-23T11:47:08;98154.25;;;9.37;75.28
23996;BME280;12207;50.076;8.848;2024-02-23T11:49:34;98155.91;;;9.43;75.36
23996;BME280;12207;50.076;8.848;2024-02-23T11:52:00;98157.47;;;9.71;76.86
23996;BME280;12207;50.076;8.848;2024-02-23T11:54:27;98144.13;;;10.71;70.90
23996;BME280;12207;50.076;8.848;2024-02-23T11:56:53;98147.78;;;11.47;66.81
23996;BME280;12207;50.076;8.848;2024-02-23T11:59:20;98154.19;;;11.21;66.15
23996;BME280;12207;50.076;8.848;2024-02-23T12:01:47;98156.47;;;10.72;65.85
23996;BME280;12207;50.076;8.848;2024-02-23T12:04:14;98155.66;;;10.71;68.39
23996;BME280;12207;50.076;8.848;2024-02-23T12:06:41;98155.41;;;10.73;67.37
23996;BME280;12207;50.076;8.848;2024-02-23T12:09:08;98161.91;;;10.97;67.86
23996;BME280;12207;50.076;8.848;2024-02-23T12:11:35;98157.78;;;10.59;68.92
23996;BME280;12207;50.076;8.848;2024-02-23T12:14:02;98150.00;;;10.57;70.18
23996;BME280;12207;50.076;8.848;2024-02-23T12:16:34;98146.00;;;10.13;71.47
23996;BME280;12207;50.076;8.848;2024-02-23T12:19:02;98153.47;;;10.16;71.79
23996;BME280;12207;50.076;8.848;2024-02-23T12:21:29;98156.16;;;10.11;70.00
23996;BME280;12207;50.076;8.848;2024-02-23T12:23:55;98161.09;;;10.29;70.83
23996;BME280;12207;50.076;8.848;2024-02-23T12:26:22;98152.81;;;10.31;72.23
23996;BME280;12207;50.076;8.848;2024-02-23T12:28:48;98156.28;;;10.31;75.87
23996;BME280;12207;50.076;8.848;2024-02-23T12:31:14;98162.06;;;10.18;76.74
23996;BME280;12207;50.076;8.848;2024-02-23T12:33:43;98158.56;;;10.12;76.71
23996;BME280;12207;50.076;8.848;2024-02-23T12:36:14;98159.69;;;9.79;74.92
23996;BME280;12207;50.076;8.848;2024-02-23T12:38:41;98145.38;;;9.64;77.03
23996;BME280;12207;50.076;8.848;2024-02-23T12:41:07;98153.13;;;9.60;78.79
23996;BME280;12207;50.076;8.848;2024-02-23T12:43:33;98161.34;;;9.53;80.13
23996;BME280;12207;50.076;8.848;2024-02-23T12:45:59;98166.88;;;9.42;81.94
23996;BME280;12207;50.076;8.848;2024-02-23T12:48:27;98153.34;;;9.27;85.81
23996;BME280;12207;50.076;8.848;2024-02-23T12:50:53;98154.50;;;9.36;88.37
23996;BME280;12207;50.076;8.848;2024-02-23T12:53:36;98146.94;;;9.28;87.07
23996;BME280;12207;50.076;8.848;2024-02-23T12:56:12;98139.09;;;9.16;87.03
23996;BME280;12207;50.076;8.848;2024-02-23T12:58:43;98142.59;;;9.21;87.97
23996;BME280;12207;50.076;8.848;2024-02-23T13:01:10;98143.06;;;9.40;87.09
23996;BME280;12207;50.076;8.848;2024-02-23T13:03:38;98145.50;;;9.47;85.43
23996;BME280;12207;50.076;8.848;2024-02-23T13:06:04;98149.16;;;9.68;89.14
23996;BME280;12207;50.076;8.848;2024-02-23T13:08:31;98136.66;;;9.78;86.20
23996;BME280;12207;50.076;8.848;2024-02-23T13:10:57;98133.94;;;9.68;85.22